sensor_id;sensor_type;location;lat;lon;timestamp;pressure;altitude;pressure_sealevel;temperature;humidity
32759;BME280;19125;52.360;9.974;2023-06-10T00:01:54;85405.50;;;-145.17;42.87
32759;BME280;19125;52.360;9.974;2023-06-10T00:04:25;85474.94;;;-145.17;42.98
32759;BME280;19125;52.360;9.974;2023-06-10T00:06:52;85480.88;;;-145.17;43.11
32759;BME280;19125;52.360;9.974;2023-06-10T00:09:19;85490.81;;;-145.17;43.47
32759;BME280;19125;52.360;9.974;2023-06-10T00:11:44;85492.78;;;-145.17;43.67
32759;BME280;19125;52.360;9.974;2023-06-10T00:14:10;85514.59;;;-145.17;43.65
32759;BME280;19125;52.360;9.974;2023-06-10T00:16:35;85488.81;;;-145.17;44.07
32759;BME280;19125;52.360;9.974;2023-06-10T00:19:02;85470.97;;;-145.17;44.22
32759;BME280;19125;52.360;9.974;2023-06-10T00:21:28;85554.28;;;-145.17;44.15
32759;BME280;19125;52.360;9.974;2023-06-10T00:23:54;85629.69;;;-145.17;44.53
32759;BME280;19125;52.360;9.974;2023-06-10T00:26:21;85605.88;;;-145.17;44.81
32759;BME280;19125;52.360;9.974;2023-06-10T00:28:46;85532.47;;;-145.17;45.12
32759;BME280;19125;52.360;9.974;2023-06-10T00:31:12;85609.84;;;-145.17;45.15
32759;BME280;19125;52.360;9.974;2023-06-10T00:33:37;85597.94;;;-145.17;45.81
32759;BME280;19125;52.360;9.974;2023-06-10T00:36:03;85633.66;;;-145.17;46.18
32759;BME280;19125;52.360;9.974;2023-06-10T00:38:28;85613.81;;;-145.17;46.23
32759;BME280;19125;52.360;9.974;2023-06-10T00:40:54;85649.53;;;-145.17;46.42
32759;BME280;19125;52.360;9.974;2023-06-10T00:43:19;85671.34;;;-145.17;46.75
32759;BME280;19125;52.360;9.974;2023-06-10T00:45:44;85683.25;;;-145.17;47.18
32759;BME280;19125;52.360;9.974;2023-06-10T00:48:10;85691.19;;;-145.17;47.54
32759;BME280;19125;52.360;9.974;2023-06-10T00:50:35;85691.19;;;-145.17;47.91
32759;BME280;19125;52.360;9.974;2023-06-10T00:53:04;85709.06;;;-145.17;47.97
32759;BME280;19125;52.360;9.974;2023-06-10T00:55:32;85730.88;;;-145.17;48.23
32759;BME280;19125;52.360;9.974;2023-06-10T00:57:58;85738.81;;;-145.17;48.54
32759;BME280;19125;52.360;9.974;2023-06-10T01:00:23;85774.53;;;-145.17;49.14
32759;BME280;19125;52.360;9.974;2023-06-10T01:02:49;85762.63;;;-145.17;49.98
32759;BME280;19125;52.360;9.974;2023-06-10T01:05:14;85802.31;;;-145.17;50.05
32759;BME280;19125;52.360;9.974;2023-06-10T01:07:45;85834.06;;;-145.17;50.66
32759;BME280;19125;52.360;9.974;2023-06-10T01:10:33;85889.63;;;-145.17;51.21
32759;BME280;19125;52.360;9.974;2023-06-10T01:13:09;85907.47;;;-145.17;51.85
32759;BME280;19125;52.360;9.974;2023-06-10T01:15:37;85937.22;;;-145.17;52.16
32759;BME280;19125;52.360;9.974;2023-06-10T01:18:10;85998.75;;;-145.17;52.52
32759;BME280;19125;52.360;9.974;2023-06-10T01:20:41;85998.75;;;-145.17;53.17
32759;BME280;19125;52.360;9.974;2023-06-10T01:23:07;86060.25;;;-145.17;53.70
32759;BME280;19125;52.360;9.974;2023-06-10T01:25:37;86080.09;;;-145.17;53.86
32759;BME280;19125;52.360;9.974;2023-06-10T01:28:30;86147.56;;;-145.17;54.42
32759;BME280;19125;52.360;9.974;2023-06-10T01:33:35;86256.72;;;-145.17;55.20
32759;BME280;19125;52.360;9.974;2023-06-10T01:36:02;86268.63;;;-145.17;55.35
32759;BME280;19125;52.360;9.974;2023-06-10T01:38:31;86310.28;;;-145.17;55.85
32759;BME280;19125;52.360;9.974;2023-06-10T01:40:58;86381.72;;;-145.17;56.48
32759;BME280;19125;52.360;9.974;2023-06-10T01:43:24;86459.13;;;-145.17;56.83
32759;BME280;19125;52.360;9.974;2023-06-10T01:45:49;86469.06;;;-145.17;57.07
32759;BME280;19125;52.360;9.974;2023-06-10T01:48:15;86498.81;;;-145.17;57.47
32759;BME280;19125;52.360;9.974;2023-06-10T01:50:40;86508.75;;;-145.17;57.72
32759;BME280;19125;52.360;9.974;2023-06-10T01:53:05;86580.19;;;-145.17;58.05
32759;BME280;19125;52.360;9.974;2023-06-10T01:55:31;86604.00;;;-145.17;58.06
32759;BME280;19125;52.360;9.974;2023-06-10T01:57:56;86659.56;;;-145.17;58.39
32759;BME280;19125;52.360;9.974;2023-06-10T02:00:22;86689.34;;;-145.17;59.07
32759;BME280;19125;52.360;9.974;2023-06-10T02:02:47;86734.97;;;-145.17;58.97
32759;BME280;19125;52.360;9.974;2023-06-10T02:05:12;86750.88;;;-145.17;59.53
32759;BME280;19125;52.360;9.974;2023-06-10T02:07:38;86778.66;;;-145.17;59.40
32759;BME280;19125;52.360;9.974;2023-06-10T02:10:05;86812.38;;;-145.17;59.82
32759;BME280;19125;52.360;9.974;2023-06-10T02:12:31;86842.16;;;-145.17;60.35
32759;BME280;19125;52.360;9.974;2023-06-10T02:14:56;86907.66;;;-145.17;60.41
32759;BME280;19125;52.360;9.974;2023-06-10T02:17:22;86945.38;;;-145.17;61.08
32759;BME280;19125;52.360;9.974;2023-06-10T02:19:48;86957.28;;;-145.17;60.97
32759;BME280;19125;52.360;9.974;2023-06-10T02:22:21;87008.88;;;-145.17;61.63
32759;BME280;19125;52.360;9.974;2023-06-10T02:24:46;87034.69;;;-145.17;62.02
32759;BME280;19125;52.360;9.974;2023-06-10T02:27:12;87046.59;;;-145.17;62.10
32759;BME280;19125;52.360;9.974;2023-06-10T02:29:37;87036.66;;;-145.17;62.76
32759;BME280;19125;52.360;9.974;2023-06-10T02:32:03;87048.56;;;-145.17;62.94
32759;BME280;19125;52.360;9.974;2023-06-10T02:34:28;86989.03;;;-145.17;63.69
32759;BME280;19125;52.360;9.974;2023-06-10T02:36:54;86919.56;;;-145.17;63.62
32759;BME280;19125;52.360;9.974;2023-06-10T02:39:19;86814.38;;;-145.17;64.05
32759;BME280;19125;52.360;9.974;2023-06-10T02:41:44;86576.22;;;-145.17;64.23
32759;BME280;19125;52.360;9.974;2023-06-10T02:44:09;86453.16;;;-145.17;64.42
32759;BME280;19125;52.360;9.974;2023-06-10T02:46:35;86215.03;;;-145.17;64.57
32759;BME280;19125;52.360;9.974;2023-06-10T02:49:00;85897.53;;;-145.17;64.86
32759;BME280;19125;52.360;9.974;2023-06-10T02:51:26;85663.41;;;-145.17;65.12
32759;BME280;19125;52.360;9.974;2023-06-10T02:53:52;85072.19;;;-145.17;65.18
32759;BME280;19125;52.360;9.974;2023-06-10T02:56:18;84606.00;;;-145.17;65.19
32759;BME280;19125;52.360;9.974;2023-06-10T02:58:44;84135.94;;;-145.17;65.28
32759;BME280;19125;52.360;9.974;2023-06-10T03:01:09;83663.91;;;-145.17;65.25
32759;BME280;19125;52.360;9.974;2023-06-10T03:03:35;83144.38;;;-145.17;65.57
32759;BME280;19125;52.360;9.974;2023-06-10T03:06:02;82392.94;;;-145.17;65.44
32759;BME280;19125;52.360;9.974;2023-06-10T03:08:28;81197.66;;;-145.17;65.90
32759;BME280;19125;52.360;9.974;2023-06-10T03:10:53;80034.44;;;-145.17;65.95
32759;BME280;19125;52.360;9.974;2023-06-10T03:13:19;78703.19;;;-145.17;65.84
32759;BME280;19125;52.360;9.974;2023-06-10T03:15:44;76899.19;;;-145.17;66.00
32759;BME280;19125;52.360;9.974;2023-06-10T03:18:11;74532.03;;;-145.17;65.96
32759;BME280;19125;52.360;9.974;2023-06-10T03:20:36;71442.63;;;-145.17;66.43
32759;BME280;19125;52.360;9.974;2023-06-10T03:23:04;68237.06;;;-145.17;66.31
32759;BME280;19125;52.360;9.974;2023-06-10T03:25:31;70353.41;;;-145.17;65.84
32759;BME280;19125;52.360;9.974;2023-06-10T03:27:56;75899.50;;;-145.17;65.36
32759;BME280;19125;52.360;9.974;2023-06-10T03:30:21;82315.59;;;-145.17;64.63
32759;BME280;19125;52.360;9.974;2023-06-10T03:32:47;84986.88;;;-145.17;63.43
32759;BME280;19125;52.360;9.974;2023-06-10T03:35:13;86113.84;;;-145.17;62.88
32759;BME280;19125;52.360;9.974;2023-06-10T03:37:40;86570.25;;;-145.17;62.14
32759;BME280;19125;52.360;9.974;2023-06-10T03:40:06;86669.50;;;-145.17;61.20
32759;BME280;19125;52.360;9.974;2023-06-10T03:42:32;86602.00;;;-145.17;59.53
32759;BME280;19125;52.360;9.974;2023-06-10T03:44:58;86496.84;;;-145.17;58.27
32759;BME280;19125;52.360;9.974;2023-06-10T03:47:23;86359.91;;;-145.17;57.20
32759;BME280;19125;52.360;9.974;2023-06-10T03:49:48;86219.00;;;-145.17;55.99
32759;BME280;19125;52.360;9.974;2023-06-10T03:52:14;86103.91;;;-145.17;54.74
32759;BME280;19125;52.360;9.974;2023-06-10T03:54:39;86086.06;;;-145.17;54.76
32759;BME280;19125;52.360;9.974;2023-06-10T03:57:04;86179.31;;;-145.17;54.91
32759;BME280;19125;52.360;9.974;2023-06-10T03:59:31;86217.03;;;-145.17;55.47
32759;BME280;19125;52.360;9.974;2023-06-10T04:01:56;86294.41;;;-145.17;56.00
32759;BME280;19125;52.360;9.974;2023-06-10T04:04:23;86429.34;;;-145.17;56.94
32759;BME280;19125;52.360;9.974;2023-06-10T04:06:48;86506.75;;;-145.17;57.81
32759;BME280;19125;52.360;9.974;2023-06-10T04:09:14;86548.44;;;-145.17;58.50
32759;BME280;19125;52.360;9.974;2023-06-10T04:11:41;86639.72;;;-145.17;59.17
32759;BME280;19125;52.360;9.974;2023-06-10T04:14:06;86655.59;;;-145.17;59.33
32759;BME280;19125;52.360;9.974;2023-06-10T04:16:32;86542.47;;;-145.17;58.87
32759;BME280;19125;52.360;9.974;2023-06-10T04:18:59;86342.03;;;-145.17;57.12
32759;BME280;19125;52.360;9.974;2023-06-10T04:21:24;86191.22;;;-145.17;55.96
32759;BME280;19125;52.360;9.974;2023-06-10T04:23:50;85974.94;;;-145.17;54.22
32759;BME280;19125;52.360;9.974;2023-06-10T04:26:16;85816.19;;;-145.17;52.48
32759;BME280;19125;52.360;9.974;2023-06-10T04:28:43;85726.91;;;-145.17;51.21
32759;BME280;19125;52.360;9.974;2023-06-10T04:31:08;85667.38;;;-145.17;50.44
32759;BME280;19125;52.360;9.974;2023-06-10T04:33:35;85590.00;;;-145.17;49.82
32759;BME280;19125;52.360;9.974;2023-06-10T04:36:00;85607.84;;;-145.17;49.60
32759;BME280;19125;52.360;9.974;2023-06-10T04:38:26;85639.59;;;-145.17;49.74
32759;BME280;19125;52.360;9.974;2023-06-10T04:40:51;85651.50;;;-145.17;50.00
32759;BME280;19125;52.360;9.974;2023-06-10T04:43:17;85707.06;;;-145.17;50.42
32759;BME280;19125;52.360;9.974;2023-06-10T04:45:42;85726.91;;;-145.17;50.57
32759;BME280;19125;52.360;9.974;2023-06-10T04:48:11;85750.72;;;-145.17;51.25
32759;BME280;19125;52.360;9.974;2023-06-10T04:50:37;85794.38;;;-145.17;51.60
32759;BME280;19125;52.360;9.974;2023-06-10T04:53:02;85790.41;;;-145.17;51.67
32759;BME280;19125;52.360;9.974;2023-06-10T04:55:28;85830.09;;;-145.17;52.00
32759;BME280;19125;52.360;9.974;2023-06-10T04:57:53;85861.84;;;-145.17;51.83
32759;BME280;19125;52.360;9.974;2023-06-10T05:00:18;85836.03;;;-145.17;52.28
32759;BME280;19125;52.360;9.974;2023-06-10T05:02:44;85879.69;;;-145.17;52.77
32759;BME280;19125;52.360;9.974;2023-06-10T05:05:10;85905.47;;;-145.17;52.72
32759;BME280;19125;52.360;9.974;2023-06-10T05:07:35;85881.69;;;-145.17;52.77
32759;BME280;19125;52.360;9.974;2023-06-10T05:10:00;85840.00;;;-145.17;52.42
32759;BME280;19125;52.360;9.974;2023-06-10T05:12:26;85857.88;;;-145.17;52.32
32759;BME280;19125;52.360;9.974;2023-06-10T05:14:52;85830.09;;;-145.17;51.96
32759;BME280;19125;52.360;9.974;2023-06-10T05:17:17;85867.78;;;-145.17;52.33
32759;BME280;19125;52.360;9.974;2023-06-10T05:19:43;85857.88;;;-145.17;52.53
32759;BME280;19125;52.360;9.974;2023-06-10T05:22:09;85877.72;;;-145.17;52.42
32759;BME280;19125;52.360;9.974;2023-06-10T05:24:34;85859.84;;;-145.17;52.48
32759;BME280;19125;52.360;9.974;2023-06-10T05:27:00;85814.22;;;-145.17;52.37
32759;BME280;19125;52.360;9.974;2023-06-10T05:29:25;85842.00;;;-145.17;52.60
32759;BME280;19125;52.360;9.974;2023-06-10T05:31:51;85838.03;;;-145.17;52.50
32759;BME280;19125;52.360;9.974;2023-06-10T05:34:16;85810.25;;;-145.17;51.92
32759;BME280;19125;52.360;9.974;2023-06-10T05:36:41;85806.28;;;-145.17;51.84
32759;BME280;19125;52.360;9.974;2023-06-10T05:39:07;85792.38;;;-145.17;51.72
32759;BME280;19125;52.360;9.974;2023-06-10T05:41:32;85830.09;;;-145.17;51.40
32759;BME280;19125;52.360;9.974;2023-06-10T05:43:58;85838.03;;;-145.17;52.04
32759;BME280;19125;52.360;9.974;2023-06-10T05:46:23;85881.69;;;-145.17;52.48
32759;BME280;19125;52.360;9.974;2023-06-10T05:48:49;85907.47;;;-145.17;53.07
32759;BME280;19125;52.360;9.974;2023-06-10T05:51:14;85963.03;;;-145.17;53.27
32759;BME280;19125;52.360;9.974;2023-06-10T05:53:39;85927.31;;;-145.17;53.49
32759;BME280;19125;52.360;9.974;2023-06-10T05:56:05;85941.19;;;-145.17;53.40
32759;BME280;19125;52.360;9.974;2023-06-10T05:58:30;85877.72;;;-145.17;53.31
32759;BME280;19125;52.360;9.974;2023-06-10T06:00:56;85873.75;;;-145.17;52.93
32759;BME280;19125;52.360;9.974;2023-06-10T06:03:21;85847.94;;;-145.17;52.50
32759;BME280;19125;52.360;9.974;2023-06-10T06:05:46;85842.00;;;-145.17;52.26
32759;BME280;19125;52.360;9.974;2023-06-10T06:08:12;85869.78;;;-145.17;52.30
32759;BME280;19125;52.360;9.974;2023-06-10T06:10:38;85867.78;;;-145.17;52.28
32759;BME280;19125;52.360;9.974;2023-06-10T06:13:04;85877.72;;;-145.17;52.30
32759;BME280;19125;52.360;9.974;2023-06-10T06:15:29;85867.78;;;-145.17;52.63
32759;BME280;19125;52.360;9.974;2023-06-10T06:17:55;85901.53;;;-145.17;52.71
32759;BME280;19125;52.360;9.974;2023-06-10T06:20:22;85970.97;;;-145.17;53.39
32759;BME280;19125;52.360;9.974;2023-06-10T06:22:47;86034.47;;;-145.17;53.64
32759;BME280;19125;52.360;9.974;2023-06-10T06:25:13;85980.88;;;-145.17;53.90
32759;BME280;19125;52.360;9.974;2023-06-10T06:27:38;86050.34;;;-145.17;54.08
32759;BME280;19125;52.360;9.974;2023-06-10T06:30:04;86074.16;;;-145.17;54.84
32759;BME280;19125;52.360;9.974;2023-06-10T06:32:31;86012.63;;;-145.17;54.22
32759;BME280;19125;52.360;9.974;2023-06-10T06:34:56;86006.69;;;-145.17;54.39
32759;BME280;19125;52.360;9.974;2023-06-10T06:37:23;86012.63;;;-145.17;54.19
32759;BME280;19125;52.360;9.974;2023-06-10T06:39:52;86002.72;;;-145.17;54.28
32759;BME280;19125;52.360;9.974;2023-06-10T06:42:18;85974.94;;;-145.17;53.91
32759;BME280;19125;52.360;9.974;2023-06-10T06:44:44;85925.31;;;-145.17;53.44
32759;BME280;19125;52.360;9.974;2023-06-10T06:47:10;85927.31;;;-145.17;53.29
32759;BME280;19125;52.360;9.974;2023-06-10T06:49:35;85889.63;;;-145.17;53.11
32759;BME280;19125;52.360;9.974;2023-06-10T06:52:01;85925.31;;;-145.17;53.16
32759;BME280;19125;52.360;9.974;2023-06-10T06:54:26;85879.69;;;-145.17;53.29
32759;BME280;19125;52.360;9.974;2023-06-10T06:56:52;85802.31;;;-145.17;53.33
32759;BME280;19125;52.360;9.974;2023-06-10T06:59:17;85738.81;;;-145.17;52.04
32759;BME280;19125;52.360;9.974;2023-06-10T07:01:44;85655.47;;;-145.17;50.83
32759;BME280;19125;52.360;9.974;2023-06-10T07:04:10;85582.06;;;-145.17;50.48
32759;BME280;19125;52.360;9.974;2023-06-10T07:06:35;85568.19;;;-145.17;49.72
32759;BME280;19125;52.360;9.974;2023-06-10T07:09:01;85488.81;;;-145.17;49.19
32759;BME280;19125;52.360;9.974;2023-06-10T07:11:27;85474.94;;;-145.17;48.99
32759;BME280;19125;52.360;9.974;2023-06-10T07:13:52;85457.06;;;-145.17;48.49
32759;BME280;19125;52.360;9.974;2023-06-10T07:16:17;85405.50;;;-145.17;48.29
32759;BME280;19125;52.360;9.974;2023-06-10T07:18:45;85413.41;;;-145.17;47.83
32759;BME280;19125;52.360;9.974;2023-06-10T07:21:11;85421.34;;;-145.17;47.70
32759;BME280;19125;52.360;9.974;2023-06-10T07:23:36;85336.03;;;-145.17;47.44
32759;BME280;19125;52.360;9.974;2023-06-10T07:26:01;85332.09;;;-145.17;46.96
32759;BME280;19125;52.360;9.974;2023-06-10T07:28:27;85318.19;;;-145.17;47.01
32759;BME280;19125;52.360;9.974;2023-06-10T07:30:52;85318.19;;;-145.17;46.65
32759;BME280;19125;52.360;9.974;2023-06-10T07:33:17;85282.47;;;-145.17;46.25
32759;BME280;19125;52.360;9.974;2023-06-10T07:35:43;85258.69;;;-145.17;45.90
32759;BME280;19125;52.360;9.974;2023-06-10T07:38:08;85258.69;;;-145.17;45.48
32759;BME280;19125;52.360;9.974;2023-06-10T07:40:34;85236.84;;;-145.17;45.50
32759;BME280;19125;52.360;9.974;2023-06-10T07:42:59;85258.69;;;-145.17;45.45
32759;BME280;19125;52.360;9.974;2023-06-10T07:45:25;85234.88;;;-145.17;45.66
32759;BME280;19125;52.360;9.974;2023-06-10T07:47:50;85232.88;;;-145.17;45.47
32759;BME280;19125;52.360;9.974;2023-06-10T07:50:16;85205.09;;;-145.17;45.25
32759;BME280;19125;52.360;9.974;2023-06-10T07:52:41;85137.66;;;-145.17;44.91
32759;BME280;19125;52.360;9.974;2023-06-10T07:55:06;85143.59;;;-145.17;44.32
32759;BME280;19125;52.360;9.974;2023-06-10T07:57:32;85145.59;;;-145.17;43.93
32759;BME280;19125;52.360;9.974;2023-06-10T08:00:02;85074.16;;;-145.17;43.75
32759;BME280;19125;52.360;9.974;2023-06-10T08:02:29;85064.25;;;-145.17;43.28
32759;BME280;19125;52.360;9.974;2023-06-10T08:04:54;85004.75;;;-145.17;43.28
32759;BME280;19125;52.360;9.974;2023-06-10T08:07:20;85008.72;;;-145.17;42.65
32759;BME280;19125;52.360;9.974;2023-06-10T08:09:45;84973.00;;;-145.17;42.42
32759;BME280;19125;52.360;9.974;2023-06-10T08:12:10;84992.84;;;-145.17;42.00
32759;BME280;19125;52.360;9.974;2023-06-10T08:14:36;84980.94;;;-145.17;42.73
32759;BME280;19125;52.360;9.974;2023-06-10T08:17:02;84976.97;;;-145.17;42.08
32759;BME280;19125;52.360;9.974;2023-06-10T08:19:30;84939.28;;;-145.17;41.47
32759;BME280;19125;52.360;9.974;2023-06-10T08:21:56;84885.72;;;-145.17;40.85
32759;BME280;19125;52.360;9.974;2023-06-10T08:24:21;84879.75;;;-145.17;40.50
32759;BME280;19125;52.360;9.974;2023-06-10T08:26:46;84917.47;;;-145.17;40.83
32759;BME280;19125;52.360;9.974;2023-06-10T08:29:12;84917.47;;;-145.17;40.70
32759;BME280;19125;52.360;9.974;2023-06-10T08:31:42;84901.59;;;-145.17;40.68
32759;BME280;19125;52.360;9.974;2023-06-10T08:34:08;84865.88;;;-145.17;40.57
32759;BME280;19125;52.360;9.974;2023-06-10T08:36:33;84853.97;;;-145.17;40.52
32759;BME280;19125;52.360;9.974;2023-06-10T08:38:59;84818.25;;;-145.17;40.39
32759;BME280;19125;52.360;9.974;2023-06-10T08:41:25;84770.66;;;-145.17;40.01
32759;BME280;19125;52.360;9.974;2023-06-10T08:44:09;84766.69;;;-145.17;39.59
32759;BME280;19125;52.360;9.974;2023-06-10T08:46:36;84738.91;;;-145.17;39.63
32759;BME280;19125;52.360;9.974;2023-06-10T08:49:06;84723.06;;;-145.17;39.39
32759;BME280;19125;52.360;9.974;2023-06-10T08:51:35;84730.97;;;-145.17;38.94
32759;BME280;19125;52.360;9.974;2023-06-10T08:54:05;84635.78;;;-145.17;38.93
32759;BME280;19125;52.360;9.974;2023-06-10T08:56:38;84623.88;;;-145.17;38.49
32759;BME280;19125;52.360;9.974;2023-06-10T08:59:05;84627.84;;;-145.17;38.30
32759;BME280;19125;52.360;9.974;2023-06-10T09:01:30;84649.66;;;-145.17;38.67
32759;BME280;19125;52.360;9.974;2023-06-10T09:03:57;84600.06;;;-145.17;38.54
32759;BME280;19125;52.360;9.974;2023-06-10T09:06:25;84623.88;;;-145.17;38.46
32759;BME280;19125;52.360;9.974;2023-06-10T09:08:50;84586.19;;;-145.17;38.46
32759;BME280;19125;52.360;9.974;2023-06-10T09:11:16;84552.47;;;-145.17;38.41
32759;BME280;19125;52.360;9.974;2023-06-10T09:13:41;84502.88;;;-145.17;37.94
32759;BME280;19125;52.360;9.974;2023-06-10T09:16:07;84506.84;;;-145.17;37.63
32759;BME280;19125;52.360;9.974;2023-06-10T09:18:32;84494.94;;;-145.17;37.21
32759;BME280;19125;52.360;9.974;2023-06-10T09:20:59;84485.03;;;-145.17;37.12
32759;BME280;19125;52.360;9.974;2023-06-10T09:23:25;84494.94;;;-145.17;37.17
32759;BME280;19125;52.360;9.974;2023-06-10T09:25:57;84435.44;;;-145.17;37.54
32759;BME280;19125;52.360;9.974;2023-06-10T09:28:23;84447.34;;;-145.17;37.97
32759;BME280;19125;52.360;9.974;2023-06-10T09:30:49;84465.19;;;-145.17;37.23
32759;BME280;19125;52.360;9.974;2023-06-10T09:33:15;84473.13;;;-145.17;37.68
32759;BME280;19125;52.360;9.974;2023-06-10T09:35:48;84417.56;;;-145.17;37.79
32759;BME280;19125;52.360;9.974;2023-06-10T09:38:19;84393.78;;;-145.17;37.17
32759;BME280;19125;52.360;9.974;2023-06-10T09:40:50;84350.13;;;-145.17;36.20
32759;BME280;19125;52.360;9.974;2023-06-10T09:43:16;84421.53;;;-145.17;35.60
32759;BME280;19125;52.360;9.974;2023-06-10T09:45:41;84389.81;;;-145.17;35.74
32759;BME280;19125;52.360;9.974;2023-06-10T09:48:08;84366.00;;;-145.17;36.04
32759;BME280;19125;52.360;9.974;2023-06-10T09:50:33;84348.16;;;-145.17;36.18
32759;BME280;19125;52.360;9.974;2023-06-10T09:53:00;84296.59;;;-145.17;35.76
32759;BME280;19125;52.360;9.974;2023-06-10T09:55:27;84252.94;;;-145.17;36.04
32759;BME280;19125;52.360;9.974;2023-06-10T09:57:53;84296.59;;;-145.17;36.10
32759;BME280;19125;52.360;9.974;2023-06-10T10:00:19;84310.47;;;-145.17;36.10
32759;BME280;19125;52.360;9.974;2023-06-10T10:02:49;84215.25;;;-145.17;36.55
32759;BME280;19125;52.360;9.974;2023-06-10T10:05:16;84203.38;;;-145.17;35.95
32759;BME280;19125;52.360;9.974;2023-06-10T10:07:43;84270.81;;;-145.17;36.02
32759;BME280;19125;52.360;9.974;2023-06-10T10:10:09;84241.06;;;-145.17;35.99
32759;BME280;19125;52.360;9.974;2023-06-10T10:12:38;84193.44;;;-145.17;35.45
32759;BME280;19125;52.360;9.974;2023-06-10T10:15:06;84185.50;;;-145.17;35.73
32759;BME280;19125;52.360;9.974;2023-06-10T10:17:34;84181.56;;;-145.17;35.88
32759;BME280;19125;52.360;9.974;2023-06-10T10:20:04;84169.66;;;-145.17;35.66
32759;BME280;19125;52.360;9.974;2023-06-10T10:22:40;84181.56;;;-145.17;35.74
32759;BME280;19125;52.360;9.974;2023-06-10T10:25:11;84155.75;;;-145.17;35.18
32759;BME280;19125;52.360;9.974;2023-06-10T10:27:44;84177.59;;;-145.17;35.20
32759;BME280;19125;52.360;9.974;2023-06-10T10:30:11;84147.81;;;-145.17;35.16
32759;BME280;19125;52.360;9.974;2023-06-10T10:32:56;84100.22;;;-145.17;35.34
32759;BME280;19125;52.360;9.974;2023-06-10T10:35:23;84096.25;;;-145.17;34.97
32759;BME280;19125;52.360;9.974;2023-06-10T10:37:51;84072.47;;;-145.17;34.74
32759;BME280;19125;52.360;9.974;2023-06-10T10:40:17;84088.31;;;-145.17;34.71
32759;BME280;19125;52.360;9.974;2023-06-10T10:42:43;84052.63;;;-145.17;34.51
32759;BME280;19125;52.360;9.974;2023-06-10T10:45:09;84040.72;;;-145.17;34.39
32759;BME280;19125;52.360;9.974;2023-06-10T10:47:36;84024.88;;;-145.17;33.91
32759;BME280;19125;52.360;9.974;2023-06-10T10:50:13;84096.25;;;-145.17;34.53
32759;BME280;19125;52.360;9.974;2023-06-10T10:53:00;84016.94;;;-145.17;34.13
32759;BME280;19125;52.360;9.974;2023-06-10T10:55:27;83997.09;;;-145.17;34.47
32759;BME280;19125;52.360;9.974;2023-06-10T10:57:57;83987.19;;;-145.17;33.70
32759;BME280;19125;52.360;9.974;2023-06-10T11:00:30;83983.22;;;-145.17;33.73
32759;BME280;19125;52.360;9.974;2023-06-10T11:03:00;83937.59;;;-145.17;33.21
32759;BME280;19125;52.360;9.974;2023-06-10T11:07:57;83868.19;;;-145.17;33.62
32759;BME280;19125;52.360;9.974;2023-06-10T11:10:36;83854.31;;;-145.17;32.84
32759;BME280;19125;52.360;9.974;2023-06-10T11:13:06;83850.34;;;-145.17;32.12
32759;BME280;19125;52.360;9.974;2023-06-10T11:15:38;83852.31;;;-145.17;32.04
32759;BME280;19125;52.360;9.974;2023-06-10T11:18:26;83830.50;;;-145.17;31.88
32759;BME280;19125;52.360;9.974;2023-06-10T11:20:54;83830.50;;;-145.17;31.94
32759;BME280;19125;52.360;9.974;2023-06-10T11:33:48;83767.03;;;-145.17;31.80
32759;BME280;19125;52.360;9.974;2023-06-10T11:36:14;83759.09;;;-145.17;31.21
32759;BME280;19125;52.360;9.974;2023-06-10T11:38:40;83757.13;;;-145.17;30.85
32759;BME280;19125;52.360;9.974;2023-06-10T11:41:07;83771.00;;;-145.17;30.91
32759;BME280;19125;52.360;9.974;2023-06-10T11:43:33;83665.91;;;-145.17;30.68
32759;BME280;19125;52.360;9.974;2023-06-10T11:45:58;83671.84;;;-145.17;30.49
32759;BME280;19125;52.360;9.974;2023-06-10T11:48:25;83626.25;;;-145.17;30.75
32759;BME280;19125;52.360;9.974;2023-06-10T11:50:53;83715.47;;;-145.17;29.76
32759;BME280;19125;52.360;9.974;2023-06-10T11:53:18;83695.66;;;-145.17;30.20
32759;BME280;19125;52.360;9.974;2023-06-10T11:55:46;83685.72;;;-145.17;30.00
32759;BME280;19125;52.360;9.974;2023-06-10T11:58:22;83626.25;;;-145.17;29.90
32759;BME280;19125;52.360;9.974;2023-06-10T12:00:51;83570.72;;;-145.17;29.21
32759;BME280;19125;52.360;9.974;2023-06-10T12:03:18;83636.16;;;-145.17;29.44
32759;BME280;19125;52.360;9.974;2023-06-10T12:06:04;83531.03;;;-145.17;28.85
32759;BME280;19125;52.360;9.974;2023-06-10T12:08:30;83548.91;;;-145.17;28.77
32759;BME280;19125;52.360;9.974;2023-06-10T12:10:56;83521.13;;;-145.17;29.16
32759;BME280;19125;52.360;9.974;2023-06-10T12:13:23;83477.50;;;-145.17;28.71
32759;BME280;19125;52.360;9.974;2023-06-10T12:15:49;83544.94;;;-145.17;28.50
32759;BME280;19125;52.360;9.974;2023-06-10T12:18:19;83568.72;;;-145.17;28.24
32759;BME280;19125;52.360;9.974;2023-06-10T12:20:45;83513.19;;;-145.17;28.31
32759;BME280;19125;52.360;9.974;2023-06-10T12:23:11;83467.59;;;-145.17;28.43
32759;BME280;19125;52.360;9.974;2023-06-10T12:25:37;83443.78;;;-145.17;28.58
32759;BME280;19125;52.360;9.974;2023-06-10T12:28:03;83445.78;;;-145.17;28.71
32759;BME280;19125;52.360;9.974;2023-06-10T12:30:30;83425.94;;;-145.17;28.46
32759;BME280;19125;52.360;9.974;2023-06-10T12:32:56;83410.09;;;-145.17;28.46
32759;BME280;19125;52.360;9.974;2023-06-10T12:35:26;83425.94;;;-145.17;28.47
32759;BME280;19125;52.360;9.974;2023-06-10T12:42:54;83392.22;;;-145.17;28.10
32759;BME280;19125;52.360;9.974;2023-06-10T12:45:29;83388.28;;;-145.17;27.53
32759;BME280;19125;52.360;9.974;2023-06-10T12:48:08;83342.66;;;-145.17;27.04
32759;BME280;19125;52.360;9.974;2023-06-10T12:50:35;83362.50;;;-145.17;27.54
32759;BME280;19125;52.360;9.974;2023-06-10T12:53:02;83354.56;;;-145.17;27.35
32759;BME280;19125;52.360;9.974;2023-06-10T12:55:27;83322.84;;;-145.17;27.61
32759;BME280;19125;52.360;9.974;2023-06-10T12:57:53;83299.03;;;-145.17;28.40
32759;BME280;19125;52.360;9.974;2023-06-10T13:00:20;83398.19;;;-145.17;28.45